• Join FlightAware (Why Join?)
  • Login
  • US Flag 
11:50AM EDT


 

Airport Tracker/Info


-or-


 

Live Flight TrackerFlight Track Log ✈ LXJ437 ✈ 20-Jun-2013 ✈ KSNA - KSUN

Flight Track Log - Related Links

Times and Time Zones

All times are in EDT time to prevent confusion due to time zone crossing. See the LXJ437 flight status page for this flight to view local times or setup timezone preferences in your user account.

Time Position Orientation Groundspeed Altitude Reporting Facility
EDT Latitude Longitude Course Direction KTS MPH feet Rate Location/Type
05:11PM 33.6500 -117.8833 15° North 157 181 1,300  Level Southern California TRACON
05:12PM 33.6000 -117.9000 196° South 209 241 3,700 1,800 Climbing Southern California TRACON
05:13PM 33.5708 -117.8967 175° South 205 236 4,100 1,560 Climbing Los Angeles Center
05:14PM 33.5283 -117.9464 224° Southwest 242 278 6,200 2,700 Climbing Los Angeles Center
05:15PM 33.5192 -118.0242 262° West 234 269 9,800 2,820 Climbing Los Angeles Center
05:16PM 33.5558 -118.1075 298° West 291 335 12,100 3,000 Climbing Los Angeles Center
05:17PM 34.2399 -117.6883 15° North  Level Estimated
05:17PM 33.6206 -118.2072 308° West 320 368 16,000  Level Los Angeles Center
05:18PM 33.7156 -118.1839 12° North 377 434 18,500 2,700 Climbing Los Angeles Center
05:19PM 33.7939 -118.0989 42° Northeast 384 442 21,600 2,520 Climbing Los Angeles Center
05:20PM 33.8769 -118.0083 42° Northeast 402 463 23,800 1,740 Climbing Los Angeles Center
05:21PM 33.9808 -117.8753 47° Northeast 451 519 25,300 1,800 Climbing Los Angeles Center
05:22PM 34.0708 -117.7600 47° Northeast 471 542 27,600 2,340 Climbing Los Angeles Center
05:23PM 34.1575 -117.6461 47° Northeast 465 535 30,200 2,160 Climbing Los Angeles Center
05:24PM 34.2447 -117.5331 47° Northeast 461 531 32,100 1,860 Climbing Los Angeles Center
05:25PM 34.3300 -117.4189 48° Northeast 460 529 34,100 1,920 Climbing Los Angeles Center
05:26PM 34.4183 -117.3025 47° Northeast 453 521 36,100 1,380 Climbing Los Angeles Center
05:27PM 34.5019 -117.1903 48° Northeast 451 519 37,000 840 Climbing Los Angeles Center
05:28PM 34.6072 -117.0519 47° Northeast 463 533 37,900 900 Climbing Los Angeles Center
05:29PM 34.6953 -116.9336 48° Northeast 471 542 38,900 480 Climbing Los Angeles Center
05:30PM 34.7828 -116.8153 48° Northeast 473 544 39,000 240 Climbing Los Angeles Center
05:32PM 34.8725 -116.6964 47° Northeast 477 549 39,400 720 Climbing Los Angeles Center
05:33PM 34.9594 -116.5778 48° Northeast 474 545 40,500 720 Climbing Los Angeles Center
05:34PM 35.0692 -116.4411 46° Northeast 472 543 41,000 240 Climbing Los Angeles Center
05:35PM 35.1625 -116.3258 45° Northeast 474 545 41,000  Level Los Angeles Center
05:36PM 35.2561 -116.2103 45° Northeast 478 550 41,000  Level Los Angeles Center
05:37PM 35.3472 -116.0931 46° Northeast 478 550 41,000  Level Los Angeles Center
05:38PM 35.4381 -115.9775 46° Northeast 475 547 41,000  Level Los Angeles Center
05:39PM 35.5517 -115.8383 45° Northeast 474 545 41,000  Level Los Angeles Center
05:40PM 35.6439 -115.7256 45° Northeast 469 540 41,000  Level Los Angeles Center
05:41PM 35.7353 -115.6072 46° Northeast 475 547 41,000  Level Los Angeles Center
05:42PM 35.8267 -115.4903 46° Northeast 477 549 41,000  Level Los Angeles Center
05:43PM 35.9186 -115.3742 46° Northeast 476 548 41,000  Level Los Angeles Center
05:44PM 36.0269 -115.2350 46° Northeast 474 545 41,000  Level Los Angeles Center
05:45PM 36.1164 -115.1175 47° Northeast 473 544 41,000  Level Los Angeles Center
05:46PM 36.2075 -115.0008 46° Northeast 474 545 41,000  Level Los Angeles Center
05:47PM 36.2997 -114.8822 46° Northeast 478 550 41,000  Level Los Angeles Center
05:48PM 36.3914 -114.7639 46° Northeast 479 551 41,000  Level Los Angeles Center
05:49PM 36.4997 -114.6219 46° Northeast 475 547 41,000  Level Los Angeles Center
05:50PM 36.5914 -114.5025 46° Northeast 475 547 41,000  Level Los Angeles Center
05:51PM 36.6831 -114.3819 47° Northeast 479 551 41,000  Level Los Angeles Center
05:52PM 36.7758 -114.2644 45° Northeast 477 549 41,000  Level Los Angeles Center
05:53PM 36.8881 -114.1808 31° Northeast 471 542 41,000  Level Los Angeles Center
05:54PM 36.9975 -114.0964 32° Northeast 466 536 41,000  Level Los Angeles Center
05:55PM 37.1286 -113.9944 32° Northeast 463 533 41,000  Level Los Angeles Center
05:56PM 37.2375 -113.9097 32° Northeast 461 531 41,000  Level Los Angeles Center
05:57PM 37.3447 -113.8247 32° Northeast 458 527 41,000  Level Los Angeles Center
05:58PM 37.4528 -113.7394 32° Northeast 458 527 41,000  Level Los Angeles Center
05:59PM 37.5617 -113.6550 32° Northeast 459 528 41,000  Level Los Angeles Center
06:01PM 37.6714 -113.5711 31° Northeast 461 531 41,000  Level Los Angeles Center
06:02PM 37.8019 -113.4675 32° Northeast 461 531 41,000  Level Los Angeles Center
06:03PM 37.9164 -113.4003 25° Northeast 459 528 41,000  Level Los Angeles Center
06:04PM 38.0358 -113.4033 359° North 436 502 41,000  Level Los Angeles Center
06:05PM 38.1564 -113.4039 360° North 433 498 41,000  Level Los Angeles Center
06:06PM 38.2781 -113.3533 18° North 451 519 41,000  Level Los Angeles Center
06:07PM 38.4578 -113.2725 19° North 457 526 41,000  Level Salt Lake Center
06:08PM 38.5781 -113.2175 20° North 458 527 41,000 360 Level Salt Lake Center
06:09PM 38.7228 -113.1542 19° North 458 527 41,800 660 Climbing Salt Lake Center
06:10PM 38.8428 -113.0989 20° North 458 527 42,400 480 Climbing Salt Lake Center
06:11PM 38.9658 -113.0439 19° North 464 534 42,900 240 Climbing Salt Lake Center
06:12PM 39.0892 -112.9861 20° North 468 539 43,000  Climbing Salt Lake Center
06:13PM 39.2158 -112.9297 19° North 476 548 43,000  Level Salt Lake Center
06:14PM 39.3447 -112.8689 20° North 488 562 43,000  Level Salt Lake Center
06:15PM 39.4706 -112.8125 19° North 483 556 43,000  Level Salt Lake Center
06:16PM 39.6211 -112.7436 19° North 480 552 43,000  Level Salt Lake Center
06:17PM 39.7469 -112.6869 19° North 479 551 43,000  Level Salt Lake Center
06:19PM 39.8742 -112.6281 20° North 484 557 43,000  Level Salt Lake Center
06:20PM 40.0025 -112.5853 14° North 477 549 43,000  Level Salt Lake Center
06:21PM 40.1303 -112.5781 North 460 529 43,000  Level Salt Lake Center
06:22PM 40.2567 -112.5733 North 455 524 43,000  Level Salt Lake Center
06:23PM 40.4103 -112.5669 North 462 532 43,000  Level Salt Lake Center
06:24PM 40.5389 -112.5631 North 462 532 43,000  Level Salt Lake Center
06:25PM 40.6650 -112.5792 354° North 454 522 43,000  Level Salt Lake Center
06:26PM 40.7783 -112.6419 337° Northwest 441 507 43,000  Level Salt Lake Center
06:27PM 40.8914 -112.7100 336° Northwest 443 510 43,000  Level Salt Lake Center
06:28PM 41.0042 -112.7778 336° Northwest 443 510 43,000  Level Salt Lake Center
06:29PM 41.1175 -112.8472 335° Northwest 446 513 43,000  Level Salt Lake Center
06:30PM 41.2281 -112.9164 335° Northwest 439 505 43,000  Level Salt Lake Center
06:31PM 41.3633 -112.9978 336° Northwest 442 509 43,000  Level Salt Lake Center
06:32PM 41.4725 -113.0650 335° Northwest 434 499 43,000  Level Salt Lake Center
06:33PM 41.5869 -113.1358 335° Northwest 442 509 43,000  Level Salt Lake Center
06:34PM 41.7031 -113.2075 335° Northwest 454 522 43,000  Level Salt Lake Center
06:35PM 41.8194 -113.2797 335° Northwest 459 528 43,000  Level Salt Lake Center
06:36PM 41.9350 -113.3531 335° Northwest 460 529 43,000 -960 Level Salt Lake Center
06:37PM 42.0503 -113.4231 336° Northwest 457 526 41,100 -2,820 Descending Salt Lake Center
06:38PM 42.1878 -113.5081 335° Northwest 453 521 37,300 -3,420 Descending Salt Lake Center
06:39PM 42.3033 -113.5797 335° Northwest 455 524 34,200 -3,060 Descending Salt Lake Center
06:40PM 42.4139 -113.6517 334° Northwest 442 509 31,000 -3,120 Descending Salt Lake Center
06:41PM 42.5275 -113.7228 335° Northwest 448 516 27,800 -3,120 Descending Salt Lake Center
06:42PM 42.6431 -113.7964 335° Northwest 458 527 24,600 -3,180 Descending Salt Lake Center
06:43PM 42.7553 -113.8736 333° Northwest 454 522 21,400 -3,360 Descending Salt Lake Center
06:44PM 42.8739 -113.9492 335° Northwest 420 483 17,800 -3,240 Descending Salt Lake Center
06:45PM 42.9764 -114.0144 335° Northwest 395 455 14,800 -2,640 Descending Salt Lake Center
06:46PM 43.0678 -114.0733 335° Northwest 360 414 12,400 -2,220 Descending Salt Lake Center
06:47PM 43.1600 -114.1083 345° North 339 390 10,300 -1,440 Descending Salt Lake Center
06:48PM 43.2319 -114.1311 347° North 329 379 9,500 -780 Descending Salt Lake Center
06:50PM 43.3377 -114.2396 348° North  Level FlightAware Approximate
06:57PM 43.5000 -114.2833 North  Level FlightAware Approximate
06:58PM 43.5038 -114.2956 North  Level Estimated
06:59PM 43.5038 -114.2956 North  Level Estimated
07:00PM 43.5038 -114.2956 North  Level Estimated